China Grove, Texas
Current Conditions -  °F | °C
As of 10:53 AM on Tuesday 27 Jan 2015 (Local Time) from KSSF Reporting Station
Clear Clear  
Wind Chill: 71°   Ceiling: Unl
Heat Index: 71°   Visibility: 10mi
Dew Point: 38°   Wind: 8mph
Humidity: 30%   Direction: 240°WSW
Pressure: 30.21"   Gusts: NA
Location:  29.3632°N, 98.3088°W
Report Text: KSSF 271653Z 24007KT 10SM CLR 22/03 A3021 RMK AO2 SLP226 T02170033
Loading
Personal Weather Stations






























Interactive Weather Map New forecast layout! Learn more

10-Day Weather Forecast

Advertisements
Track Severe Weather on mobile